createdAt,value
2023-01-19T00:00:45.300Z,8.90
2023-01-19T00:03:11.836Z,9.13
2023-01-19T00:05:39.672Z,9.00
2023-01-19T00:08:06.264Z,7.17
2023-01-19T00:10:32.771Z,21.63
2023-01-19T00:12:59.551Z,20.97
2023-01-19T00:15:26.220Z,16.03
2023-01-19T00:17:52.722Z,11.43
2023-01-19T00:20:19.278Z,8.47
2023-01-19T00:22:47.164Z,10.43
2023-01-19T00:25:13.657Z,9.63
2023-01-19T00:27:40.152Z,11.33
2023-01-19T00:30:08.184Z,8.93
2023-01-19T00:32:34.699Z,9.77
2023-01-19T00:35:01.203Z,9.03
2023-01-19T00:37:27.730Z,9.47
2023-01-19T00:39:55.570Z,8.40
2023-01-19T00:42:22.084Z,8.83
2023-01-19T00:44:48.636Z,6.83
2023-01-19T00:47:15.171Z,7.30
2023-01-19T00:49:41.675Z,8.83
2023-01-19T00:52:08.214Z,8.90
2023-01-19T00:54:34.746Z,8.17
2023-01-19T00:57:02.901Z,8.50
2023-01-19T00:59:29.394Z,7.93
2023-01-19T01:01:56.067Z,8.20
2023-01-19T01:04:22.709Z,7.77
2023-01-19T01:06:49.237Z,8.53
2023-01-19T01:09:15.753Z,7.87
2023-01-19T01:11:42.976Z,7.53
2023-01-19T01:14:12.401Z,8.80
2023-01-19T01:16:39.411Z,9.60
2023-01-19T01:19:06.063Z,7.23
2023-01-19T01:21:32.637Z,6.63
2023-01-19T01:23:59.127Z,7.93
2023-01-19T01:26:27.108Z,7.30
2023-01-19T01:28:54.313Z,9.03
2023-01-19T01:31:22.313Z,7.90
2023-01-19T01:33:48.848Z,7.67
2023-01-19T01:36:15.405Z,6.77
2023-01-19T01:38:42.108Z,5.50
2023-01-19T01:41:09.232Z,8.27
2023-01-19T01:43:47.067Z,6.37
2023-01-19T01:46:14.066Z,7.63
2023-01-19T01:48:44.857Z,6.63
2023-01-19T01:51:15.088Z,6.80
2023-01-19T01:53:43.188Z,7.63
2023-01-19T01:56:12.973Z,7.07
2023-01-19T01:58:40.523Z,5.70
2023-01-19T02:01:07.713Z,6.47
2023-01-19T02:03:34.415Z,6.97
2023-01-19T02:06:05.526Z,8.27
2023-01-19T02:08:35.570Z,7.50
2023-01-19T02:11:02.518Z,6.23
2023-01-19T02:13:30.809Z,8.20
2023-01-19T02:15:59.253Z,8.43
2023-01-19T02:18:28.204Z,5.30
2023-01-19T02:21:01.087Z,8.30
2023-01-19T02:23:38.560Z,8.03
2023-01-19T02:26:06.622Z,8.50
2023-01-19T02:28:33.612Z,6.97
2023-01-19T02:31:00.177Z,7.20
2023-01-19T02:33:26.732Z,8.07
2023-01-19T02:35:55.503Z,6.80
2023-01-19T02:38:23.146Z,6.43
2023-01-19T02:40:51.933Z,5.47
2023-01-19T02:43:19.877Z,9.17
2023-01-19T02:45:47.043Z,6.47
2023-01-19T02:48:14.380Z,6.23
2023-01-19T02:50:43.279Z,7.30
2023-01-19T02:53:24.990Z,6.93
2023-01-19T02:55:58.591Z,5.60
2023-01-19T02:58:33.571Z,5.27
2023-01-19T03:01:11.028Z,7.33
2023-01-19T03:03:45.546Z,7.63
2023-01-19T03:06:24.118Z,6.93
2023-01-19T03:08:55.153Z,5.83
2023-01-19T03:11:28.762Z,7.03
2023-01-19T03:14:01.676Z,10.90
2023-01-19T03:16:36.459Z,8.43
2023-01-19T03:19:08.660Z,6.60
2023-01-19T03:21:37.287Z,8.53
2023-01-19T03:24:08.307Z,7.07
2023-01-19T03:26:39.100Z,6.90
2023-01-19T03:29:08.388Z,5.90
2023-01-19T03:31:36.696Z,6.30
2023-01-19T03:34:06.462Z,5.97
2023-01-19T03:36:36.489Z,5.73
2023-01-19T03:39:05.618Z,6.17
2023-01-19T03:41:34.215Z,7.30
2023-01-19T03:44:02.802Z,5.80
2023-01-19T03:46:31.287Z,6.23
2023-01-19T03:48:59.150Z,6.63
2023-01-19T03:51:26.594Z,7.27
2023-01-19T03:53:53.127Z,5.63
2023-01-19T03:56:21.194Z,7.53
2023-01-19T03:58:47.767Z,7.70
2023-01-19T04:01:16.198Z,5.73
2023-01-19T04:03:43.091Z,6.50
2023-01-19T04:06:10.333Z,6.83
2023-01-19T04:08:36.962Z,5.73
2023-01-19T04:11:03.739Z,6.33
2023-01-19T04:13:30.241Z,7.07
2023-01-19T04:16:00.168Z,8.10
2023-01-19T04:18:28.471Z,6.30
2023-01-19T04:20:55.055Z,8.93
2023-01-19T04:23:21.706Z,7.27
2023-01-19T04:25:48.232Z,7.80
2023-01-19T04:28:14.784Z,6.97
2023-01-19T04:30:41.288Z,6.57
2023-01-19T04:33:07.797Z,6.40
2023-01-19T04:35:35.703Z,9.03
2023-01-19T04:38:02.260Z,6.73
2023-01-19T04:40:28.771Z,8.80
2023-01-19T04:42:55.277Z,7.80
2023-01-19T04:45:21.788Z,9.07
2023-01-19T04:47:49.813Z,6.93
2023-01-19T04:50:16.549Z,7.97
2023-01-19T04:52:44.503Z,5.87
2023-01-19T04:55:11.032Z,6.17
2023-01-19T04:57:37.511Z,8.40
2023-01-19T05:00:04.610Z,6.10
2023-01-19T05:02:31.161Z,6.80
2023-01-19T05:04:57.826Z,6.03
2023-01-19T05:07:24.323Z,9.67
2023-01-19T05:09:52.238Z,9.17
2023-01-19T05:12:18.713Z,9.33
2023-01-19T05:14:45.278Z,6.70
2023-01-19T05:17:12.106Z,7.80
2023-01-19T05:19:38.721Z,8.03
2023-01-19T05:22:06.048Z,8.80
2023-01-19T05:24:32.674Z,8.27
2023-01-19T05:27:00.717Z,9.10
2023-01-19T05:29:27.342Z,8.87
2023-01-19T05:31:53.952Z,6.83
2023-01-19T05:34:20.457Z,9.67
2023-01-19T05:36:47.074Z,10.87
2023-01-19T05:39:13.721Z,9.63
2023-01-19T05:41:40.235Z,7.97
2023-01-19T05:44:09.426Z,9.00
2023-01-19T05:46:36.063Z,7.83
2023-01-19T05:49:02.605Z,10.17
2023-01-19T05:51:29.092Z,7.57
2023-01-19T05:53:55.562Z,8.80
2023-01-19T05:56:22.201Z,6.60
2023-01-19T05:58:48.710Z,7.03
2023-01-19T06:01:16.620Z,7.23
2023-01-19T06:03:43.172Z,7.70
2023-01-19T06:06:09.680Z,6.87
2023-01-19T06:08:36.162Z,8.70
2023-01-19T06:11:05.973Z,7.17
2023-01-19T06:13:32.491Z,6.80
2023-01-19T06:15:59.494Z,8.47
2023-01-19T06:18:27.663Z,9.30
2023-01-19T06:20:54.227Z,8.97
2023-01-19T06:23:20.860Z,9.00
2023-01-19T06:25:49.060Z,7.17
2023-01-19T06:28:15.559Z,8.23
2023-01-19T06:30:42.091Z,7.73
2023-01-19T06:33:08.643Z,6.53
2023-01-19T06:35:36.486Z,9.93
2023-01-19T06:38:03.030Z,10.33
2023-01-19T06:40:29.522Z,10.17
2023-01-19T06:42:56.042Z,9.43
2023-01-19T06:45:22.526Z,12.50
2023-01-19T06:47:49.031Z,9.60
2023-01-19T06:50:16.016Z,8.97
2023-01-19T06:52:43.849Z,10.20
2023-01-19T06:55:11.009Z,9.67
2023-01-19T06:57:37.899Z,9.23
2023-01-19T07:00:05.448Z,10.50
2023-01-19T07:02:32.106Z,14.70
2023-01-19T07:04:58.851Z,13.43
2023-01-19T07:07:25.564Z,12.67
2023-01-19T07:09:54.058Z,9.40
2023-01-19T07:12:20.892Z,10.17
2023-01-19T07:14:47.430Z,11.33
2023-01-19T07:17:13.921Z,10.60
2023-01-19T07:19:40.506Z,10.23
2023-01-19T07:22:07.055Z,9.57
2023-01-19T07:24:33.609Z,8.87
2023-01-19T07:27:01.437Z,8.93
2023-01-19T07:29:28.017Z,9.93
2023-01-19T07:31:54.637Z,9.17
2023-01-19T07:34:21.678Z,8.67
2023-01-19T07:36:48.374Z,7.53
2023-01-19T07:39:14.991Z,11.17
2023-01-19T07:41:41.486Z,7.70
2023-01-19T07:44:09.565Z,9.20
2023-01-19T07:46:36.038Z,7.53
2023-01-19T07:49:02.541Z,10.10
2023-01-19T07:51:29.225Z,8.70
2023-01-19T07:53:55.739Z,8.57
2023-01-19T07:56:22.336Z,11.43
2023-01-19T07:58:48.859Z,7.83
2023-01-19T08:01:16.874Z,10.27
2023-01-19T08:03:43.709Z,9.07
2023-01-19T08:06:18.170Z,10.63
2023-01-19T08:08:44.694Z,11.27
2023-01-19T08:11:11.207Z,8.97
2023-01-19T08:13:37.761Z,7.73
2023-01-19T08:16:04.792Z,8.00
2023-01-19T08:18:32.680Z,8.37
2023-01-19T08:20:59.705Z,7.70
2023-01-19T08:23:26.291Z,6.37
2023-01-19T08:25:52.799Z,7.67
2023-01-19T08:28:19.754Z,7.77
2023-01-19T08:30:46.622Z,8.67
2023-01-19T08:33:13.407Z,6.97
2023-01-19T08:35:43.045Z,6.60
2023-01-19T08:38:10.406Z,8.93
2023-01-19T08:40:39.078Z,10.37
2023-01-19T08:43:07.729Z,15.57
2023-01-19T08:45:35.263Z,13.97
2023-01-19T08:48:02.163Z,12.30
2023-01-19T08:50:30.003Z,15.40
2023-01-19T08:52:58.212Z,11.20
2023-01-19T08:55:25.307Z,10.20
2023-01-19T08:57:52.090Z,8.23
2023-01-19T09:00:19.620Z,7.53
2023-01-19T09:02:46.221Z,7.97
2023-01-19T09:05:12.848Z,8.83
2023-01-19T09:07:39.345Z,8.03
2023-01-19T09:10:08.880Z,9.43
2023-01-19T09:12:35.386Z,11.83
2023-01-19T09:15:01.857Z,8.03
2023-01-19T09:17:28.472Z,7.40
2023-01-19T09:19:54.942Z,7.90
2023-01-19T09:22:21.494Z,9.83
2023-01-19T09:24:47.996Z,7.20
2023-01-19T09:27:15.939Z,6.87
2023-01-19T09:29:42.497Z,7.23
2023-01-19T09:32:09.054Z,6.43
2023-01-19T09:34:35.545Z,7.27
2023-01-19T09:37:02.057Z,9.10
2023-01-19T09:39:28.602Z,8.53
2023-01-19T09:42:00.617Z,8.17
2023-01-19T09:44:31.958Z,9.10
2023-01-19T09:46:58.743Z,8.53
2023-01-19T09:49:31.659Z,8.77
2023-01-19T09:51:58.754Z,7.67
2023-01-19T09:54:30.980Z,7.27
2023-01-19T09:56:57.543Z,6.63
2023-01-19T09:59:26.166Z,6.57
2023-01-19T10:02:06.310Z,8.80
2023-01-19T10:04:38.644Z,8.23
2023-01-19T10:07:24.814Z,8.57
2023-01-19T10:10:02.091Z,7.57
2023-01-19T10:12:42.485Z,10.03
2023-01-19T10:15:17.989Z,6.93
2023-01-19T10:17:55.784Z,7.63
2023-01-19T10:20:29.257Z,5.83
2023-01-19T10:22:58.088Z,7.33
2023-01-19T10:25:25.169Z,6.50
2023-01-19T10:27:51.691Z,8.13
2023-01-19T10:30:21.435Z,6.87
2023-01-19T10:32:49.958Z,7.57
2023-01-19T10:35:18.326Z,8.13
2023-01-19T10:37:44.877Z,8.03
2023-01-19T10:40:22.449Z,8.83
2023-01-19T10:42:49.004Z,7.43
2023-01-19T10:45:16.571Z,8.27
2023-01-19T10:47:45.522Z,6.33
2023-01-19T10:50:34.822Z,6.13
2023-01-19T10:53:03.732Z,6.40
2023-01-19T10:55:32.126Z,7.17
2023-01-19T10:57:59.884Z,7.23
2023-01-19T11:00:33.154Z,7.70
2023-01-19T11:03:00.555Z,6.87
2023-01-19T11:05:28.832Z,5.10
2023-01-19T11:07:57.136Z,5.27
2023-01-19T11:10:25.400Z,5.30
2023-01-19T11:13:04.341Z,4.50
2023-01-19T11:15:34.172Z,5.03
2023-01-19T11:18:02.412Z,5.90
2023-01-19T11:20:32.520Z,4.73
2023-01-19T11:23:08.102Z,5.70
2023-01-19T11:25:36.082Z,5.43
2023-01-19T11:28:03.476Z,4.73
2023-01-19T11:30:30.893Z,5.13
2023-01-19T11:32:57.557Z,4.93
2023-01-19T11:35:34.117Z,5.77
2023-01-19T11:38:17.627Z,9.23
2023-01-19T11:40:51.545Z,6.97
2023-01-19T11:43:18.972Z,6.17
2023-01-19T11:45:46.020Z,6.77
2023-01-19T11:48:21.204Z,8.03
2023-01-19T11:50:49.248Z,6.60
2023-01-19T11:53:21.923Z,6.40
2023-01-19T11:55:54.586Z,6.80
2023-01-19T11:58:21.654Z,5.93
2023-01-19T12:00:51.950Z,6.47
2023-01-19T12:03:24.458Z,7.70
2023-01-19T12:05:55.182Z,8.60
2023-01-19T12:08:26.088Z,5.70
2023-01-19T12:10:55.761Z,7.40
2023-01-19T12:13:24.834Z,6.50
2023-01-19T12:15:55.334Z,8.50
2023-01-19T12:18:24.488Z,7.60
2023-01-19T12:20:54.017Z,10.43
2023-01-19T12:23:32.232Z,11.60
2023-01-19T12:26:20.113Z,11.67
2023-01-19T12:28:49.413Z,9.00
2023-01-19T12:31:17.770Z,7.83
2023-01-19T12:33:44.533Z,6.60
2023-01-19T12:36:27.958Z,8.13
2023-01-19T12:38:56.769Z,6.67
2023-01-19T12:41:27.067Z,7.17
2023-01-19T12:44:23.104Z,6.10
2023-01-19T12:46:53.890Z,6.57
2023-01-19T12:49:27.773Z,6.97
2023-01-19T12:52:11.506Z,10.60
2023-01-19T12:54:43.247Z,12.70
2023-01-19T12:57:23.070Z,21.40
2023-01-19T12:59:56.461Z,12.07
2023-01-19T13:02:50.384Z,11.70
2023-01-19T13:05:21.484Z,12.20
2023-01-19T13:08:13.725Z,11.97
2023-01-19T13:11:18.724Z,10.50
2023-01-19T13:14:26.295Z,10.17
2023-01-19T13:17:00.433Z,14.00
2023-01-19T13:19:42.648Z,12.63
2023-01-19T13:22:46.774Z,14.17
2023-01-19T13:25:26.428Z,13.33
2023-01-19T13:27:54.789Z,16.23
2023-01-19T13:30:24.535Z,11.97
2023-01-19T13:32:51.480Z,9.70
2023-01-19T13:35:19.164Z,10.90
2023-01-19T13:37:46.177Z,11.30
2023-01-19T13:40:20.349Z,13.43
2023-01-19T13:42:47.617Z,9.37
2023-01-19T13:45:27.267Z,9.77
2023-01-19T13:47:56.147Z,8.60
2023-01-19T13:50:25.154Z,8.67
2023-01-19T13:52:52.166Z,8.13
2023-01-19T13:55:18.687Z,12.07
2023-01-19T13:57:46.955Z,9.13
2023-01-19T14:00:21.304Z,7.43
2023-01-19T14:02:53.921Z,9.67
2023-01-19T14:05:22.431Z,7.93
2023-01-19T14:07:58.884Z,7.00
2023-01-19T14:10:25.423Z,8.13
2023-01-19T14:12:59.655Z,6.90
2023-01-19T14:15:28.134Z,8.77
2023-01-19T14:18:20.288Z,8.57
2023-01-19T14:20:53.136Z,9.53
2023-01-19T14:23:47.690Z,8.97
2023-01-19T14:26:53.794Z,14.23
2023-01-19T14:29:26.380Z,16.90
2023-01-19T14:32:07.307Z,12.80
2023-01-19T14:34:36.626Z,11.90
2023-01-19T14:37:04.651Z,10.80
2023-01-19T14:39:34.254Z,11.83
2023-01-19T14:42:03.558Z,11.03
2023-01-19T14:44:33.723Z,12.10
2023-01-19T14:47:02.002Z,15.67
2023-01-19T14:49:32.712Z,10.87
2023-01-19T14:52:00.469Z,10.87
2023-01-19T14:54:35.494Z,8.90
2023-01-19T14:57:02.016Z,8.50
2023-01-19T14:59:28.774Z,7.93
2023-01-19T15:01:55.450Z,11.97
2023-01-19T15:04:23.386Z,11.57
2023-01-19T15:06:49.909Z,10.87
2023-01-19T15:09:16.459Z,21.00
2023-01-19T15:11:44.006Z,11.13
2023-01-19T15:14:13.234Z,10.83
2023-01-19T15:16:40.436Z,12.20
2023-01-19T15:19:10.724Z,13.00
2023-01-19T15:21:38.691Z,18.10
2023-01-19T15:24:05.512Z,15.33
2023-01-19T15:26:32.099Z,10.53
2023-01-19T15:28:58.628Z,9.37
2023-01-19T15:31:26.526Z,11.73
2023-01-19T15:33:53.133Z,12.10
2023-01-19T15:36:21.640Z,9.37
2023-01-19T15:38:49.634Z,8.83
2023-01-19T15:41:23.071Z,8.20
2023-01-19T15:43:49.945Z,8.77
2023-01-19T15:46:19.112Z,7.70
2023-01-19T15:48:45.586Z,7.73
2023-01-19T15:51:13.329Z,8.53
2023-01-19T15:53:40.680Z,7.40
2023-01-19T15:56:14.090Z,9.67
2023-01-19T15:58:40.640Z,10.33
2023-01-19T16:01:07.351Z,9.07
2023-01-19T16:03:33.923Z,11.93
2023-01-19T16:06:00.723Z,11.20
2023-01-19T16:08:28.352Z,8.73
2023-01-19T16:10:54.852Z,9.77
2023-01-19T16:13:22.768Z,8.60
2023-01-19T16:15:49.292Z,8.37
2023-01-19T16:18:15.831Z,8.20
2023-01-19T16:20:42.431Z,9.17
2023-01-19T16:23:14.782Z,7.23
2023-01-19T16:25:41.948Z,8.63
2023-01-19T16:28:08.504Z,8.30
2023-01-19T16:30:36.397Z,7.77
2023-01-19T16:33:02.989Z,7.63
2023-01-19T16:35:29.572Z,8.10
2023-01-19T16:37:56.109Z,7.87
2023-01-19T16:40:22.710Z,7.67
2023-01-19T16:42:49.285Z,7.47
2023-01-19T16:45:16.052Z,7.50
2023-01-19T16:47:43.945Z,9.77
2023-01-19T16:50:11.200Z,10.07
2023-01-19T16:52:38.206Z,12.70
2023-01-19T16:55:05.768Z,11.27
2023-01-19T16:57:32.292Z,24.37
2023-01-19T16:59:58.794Z,23.50
2023-01-19T17:02:25.417Z,17.93
2023-01-19T17:04:53.295Z,12.53
2023-01-19T17:07:19.839Z,14.40
2023-01-19T17:09:46.356Z,15.67
2023-01-19T17:12:12.891Z,17.43
2023-01-19T17:14:39.430Z,14.10
2023-01-19T17:17:05.941Z,10.17
2023-01-19T17:19:32.452Z,10.50
2023-01-19T17:22:00.334Z,14.37
2023-01-19T17:24:26.915Z,16.30
2023-01-19T17:26:53.458Z,13.53
2023-01-19T17:29:19.979Z,9.67
2023-01-19T17:31:46.510Z,11.30
2023-01-19T17:34:13.094Z,11.17
2023-01-19T17:36:39.663Z,10.00
2023-01-19T17:39:09.944Z,10.10
2023-01-19T17:41:36.697Z,9.23
2023-01-19T17:44:04.871Z,9.60
2023-01-19T17:46:31.830Z,10.00
2023-01-19T17:49:01.302Z,10.07
2023-01-19T17:51:29.164Z,10.60
2023-01-19T17:53:56.080Z,14.90
2023-01-19T17:56:25.881Z,12.03
2023-01-19T17:58:52.427Z,9.67
2023-01-19T18:01:21.696Z,10.63
2023-01-19T18:03:48.557Z,9.60
2023-01-19T18:06:15.562Z,12.40
2023-01-19T18:08:43.547Z,10.17
2023-01-19T18:11:10.858Z,9.90
2023-01-19T18:13:41.463Z,19.93
2023-01-19T18:16:10.857Z,12.57
2023-01-19T18:18:38.289Z,24.33
2023-01-19T18:21:07.189Z,12.73
2023-01-19T18:23:34.217Z,10.77
2023-01-19T18:26:04.084Z,9.90
2023-01-19T18:28:31.377Z,8.30
2023-01-19T18:30:59.643Z,9.67
2023-01-19T18:33:26.804Z,8.80
2023-01-19T18:35:53.536Z,8.67
2023-01-19T18:38:20.265Z,9.03
2023-01-19T18:40:46.785Z,9.50
2023-01-19T18:43:13.373Z,14.53
2023-01-19T18:45:39.895Z,15.17
2023-01-19T18:48:08.452Z,12.80
2023-01-19T18:50:34.982Z,10.40
2023-01-19T18:53:01.561Z,11.70
2023-01-19T18:55:28.092Z,7.70
2023-01-19T18:57:54.617Z,7.93
2023-01-19T19:00:21.601Z,7.53
2023-01-19T19:02:48.117Z,7.20
2023-01-19T19:05:16.482Z,8.57
2023-01-19T19:07:42.992Z,7.20
2023-01-19T19:10:10.573Z,6.80
2023-01-19T19:12:37.347Z,7.20
2023-01-19T19:15:04.307Z,8.40
2023-01-19T19:17:31.154Z,9.67
2023-01-19T19:19:57.738Z,11.80
2023-01-19T19:22:25.758Z,13.00
2023-01-19T19:24:52.340Z,12.57
2023-01-19T19:27:18.891Z,12.03
2023-01-19T19:29:45.921Z,14.20
2023-01-19T19:32:12.443Z,11.20
2023-01-19T19:34:39.104Z,11.07
2023-01-19T19:37:05.615Z,10.73
2023-01-19T19:39:33.489Z,9.67
2023-01-19T19:41:59.965Z,8.67
2023-01-19T19:44:26.625Z,8.33
2023-01-19T19:46:53.168Z,9.13
2023-01-19T19:49:19.726Z,9.63
2023-01-19T19:51:46.250Z,10.77
2023-01-19T19:54:12.788Z,10.27
2023-01-19T19:56:40.753Z,9.20
2023-01-19T19:59:07.276Z,9.37
2023-01-19T20:01:34.261Z,8.93
2023-01-19T20:04:06.693Z,10.37
2023-01-19T20:06:33.609Z,9.13
2023-01-19T20:09:00.138Z,9.27
2023-01-19T20:11:27.707Z,7.50
2023-01-19T20:13:55.719Z,7.53
2023-01-19T20:16:23.445Z,8.37
2023-01-19T20:18:52.590Z,16.00
2023-01-19T20:21:21.226Z,9.53
2023-01-19T20:23:49.264Z,11.00
2023-01-19T20:26:17.693Z,8.50
2023-01-19T20:28:44.632Z,7.03
2023-01-19T20:31:15.490Z,7.83
2023-01-19T20:33:42.391Z,8.17
2023-01-19T20:36:10.291Z,8.10
2023-01-19T20:38:37.239Z,7.47
2023-01-19T20:41:03.889Z,8.87
2023-01-19T20:43:30.743Z,11.53
2023-01-19T20:45:57.654Z,9.33
2023-01-19T20:48:25.960Z,11.07
2023-01-19T20:50:57.766Z,8.93
2023-01-19T20:53:24.309Z,8.33
2023-01-19T20:55:50.807Z,8.37
2023-01-19T20:58:17.328Z,9.13
2023-01-19T21:00:44.191Z,8.77
2023-01-19T21:03:10.712Z,8.30
2023-01-19T21:05:38.643Z,9.70
2023-01-19T21:08:05.273Z,9.67
2023-01-19T21:10:32.006Z,9.03
2023-01-19T21:12:58.660Z,9.60
2023-01-19T21:15:25.272Z,8.80
2023-01-19T21:17:51.843Z,11.43
2023-01-19T21:20:18.509Z,9.73
2023-01-19T21:22:46.360Z,8.60
2023-01-19T21:25:13.099Z,8.17
2023-01-19T21:27:39.752Z,8.30
2023-01-19T21:30:07.444Z,9.13
2023-01-19T21:32:34.001Z,11.67
2023-01-19T21:35:15.757Z,35.43
2023-01-19T21:37:42.303Z,29.30
2023-01-19T21:40:12.231Z,94.50
2023-01-19T21:42:38.759Z,32.80
2023-01-19T21:45:06.599Z,22.50
2023-01-19T21:47:34.442Z,50.10
2023-01-19T21:50:00.957Z,41.67
2023-01-19T21:52:27.547Z,25.00
2023-01-19T21:54:54.072Z,17.70
2023-01-19T21:57:21.981Z,13.50
2023-01-19T21:59:49.212Z,10.40
2023-01-19T22:02:21.552Z,11.30
2023-01-19T22:04:53.409Z,8.30
2023-01-19T22:07:19.921Z,8.93
2023-01-19T22:09:46.473Z,9.23
2023-01-19T22:12:12.975Z,8.77
2023-01-19T22:14:40.866Z,7.63
2023-01-19T22:17:07.391Z,9.50
2023-01-19T22:19:33.899Z,8.87
2023-01-19T22:22:00.413Z,10.23
2023-01-19T22:24:26.908Z,8.70
2023-01-19T22:26:53.411Z,7.30
2023-01-19T22:29:19.959Z,7.80
2023-01-19T22:31:47.919Z,8.53
2023-01-19T22:34:14.473Z,9.90
2023-01-19T22:36:41.003Z,7.67
2023-01-19T22:39:09.283Z,8.80
2023-01-19T22:41:37.635Z,11.00
2023-01-19T22:44:05.660Z,9.20
2023-01-19T22:46:34.139Z,10.17
2023-01-19T22:49:02.432Z,9.37
2023-01-19T22:51:32.233Z,8.37
2023-01-19T22:53:59.401Z,10.00
2023-01-19T22:56:28.102Z,16.40
2023-01-19T22:58:55.156Z,21.47
2023-01-19T23:01:24.012Z,17.17
2023-01-19T23:03:50.664Z,14.13
2023-01-19T23:06:20.094Z,11.33
2023-01-19T23:08:47.024Z,10.57
2023-01-19T23:11:15.730Z,11.67
2023-01-19T23:13:42.856Z,9.67
2023-01-19T23:16:10.648Z,9.17
2023-01-19T23:18:37.616Z,8.90
2023-01-19T23:21:05.003Z,8.73
2023-01-19T23:23:33.631Z,8.97
2023-01-19T23:26:01.002Z,8.23
2023-01-19T23:28:27.597Z,10.07
2023-01-19T23:30:54.162Z,14.00
2023-01-19T23:33:20.794Z,19.70
2023-01-19T23:35:47.348Z,15.63
2023-01-19T23:38:13.837Z,10.43
2023-01-19T23:40:41.720Z,8.83
2023-01-19T23:43:08.247Z,8.57
2023-01-19T23:45:34.901Z,8.57
2023-01-19T23:48:01.455Z,8.43
2023-01-19T23:50:27.971Z,8.10
2023-01-19T23:52:54.458Z,8.00
2023-01-19T23:55:21.062Z,9.83
2023-01-19T23:57:48.890Z,9.40
